Terminal Aerodrome Forecast
Issued by NWS

Home | Current Version | Previous Version | Graphics & Text | Print | Product List | Glossary Off
Versions: 1 2 3 4 5 6 7 8 9 10 11 12 13 14 15

000
FTUS43 KGRB 311134
TAFRHI
TAF
KRHI 311134Z 3112/0112 08009KT P6SM VCSH BKN100
     FM311500 10009KT P6SM -SHRA SCT040 BKN080
     FM311900 12009KT P6SM VCSH SCT035 OVC070
     FM312300 14008KT 6SM -SHRA SCT025 OVC040
      TEMPO 3123/0103 3SM -TSRA BKN025CB
     FM010300 16006KT 6SM -SHRA BR BKN020 OVC035
     FM010800 17003KT 3SM -SHRA BR SCT006 OVC012=

USA.gov is the U.S. government's official web portal to all federal, state and local government web resources and services.